createdAt,value
2018-02-02T00:00:41.212Z,998.77
2018-02-02T00:01:41.231Z,998.80
2018-02-02T00:02:41.242Z,998.77
2018-02-02T00:03:41.272Z,998.80
2018-02-02T00:04:41.287Z,998.81
2018-02-02T00:05:41.309Z,998.81
2018-02-02T00:06:41.321Z,998.78
2018-02-02T00:07:41.348Z,998.80
2018-02-02T00:08:41.375Z,998.82
2018-02-02T00:09:41.386Z,998.83
2018-02-02T00:10:41.408Z,998.85
2018-02-02T00:11:41.425Z,998.83
2018-02-02T00:12:41.441Z,998.83
2018-02-02T00:13:41.462Z,998.82
2018-02-02T00:14:41.487Z,998.89
2018-02-02T00:15:41.504Z,998.89
2018-02-02T00:16:41.529Z,998.88
2018-02-02T00:17:41.544Z,998.90
2018-02-02T00:18:41.577Z,998.93
2018-02-02T00:19:41.587Z,998.90
2018-02-02T00:20:41.604Z,998.92
2018-02-02T00:21:41.633Z,998.93
2018-02-02T00:22:41.652Z,998.95
2018-02-02T00:23:41.665Z,998.91
2018-02-02T00:24:41.687Z,998.93
2018-02-02T00:25:41.711Z,998.96
2018-02-02T00:26:41.736Z,998.94
2018-02-02T00:27:41.747Z,998.96
2018-02-02T00:28:41.771Z,998.93
2018-02-02T00:29:41.789Z,998.93
2018-02-02T00:30:41.805Z,998.97
2018-02-02T00:31:41.824Z,998.95
2018-02-02T00:32:41.859Z,998.93
2018-02-02T00:33:41.886Z,998.92
2018-02-02T00:34:41.895Z,998.92
2018-02-02T00:35:41.901Z,998.91
2018-02-02T00:36:41.933Z,998.88
2018-02-02T00:37:41.944Z,998.92
2018-02-02T00:38:41.964Z,998.87
2018-02-02T00:39:41.983Z,998.90
2018-02-02T00:40:42.010Z,998.91
2018-02-02T00:41:42.020Z,998.92
2018-02-02T00:42:42.053Z,998.95
2018-02-02T00:43:42.972Z,998.96
2018-02-02T00:44:42.105Z,998.94
2018-02-02T00:45:42.106Z,998.90
2018-02-02T00:46:42.120Z,998.93
2018-02-02T00:47:42.152Z,998.91
2018-02-02T00:48:42.167Z,998.91
2018-02-02T00:49:42.182Z,998.91
2018-02-02T00:50:42.206Z,998.90
2018-02-02T00:51:42.228Z,998.94
2018-02-02T00:52:42.254Z,998.93
2018-02-02T00:53:42.260Z,998.94
2018-02-02T00:54:42.308Z,998.93
2018-02-02T00:55:42.301Z,998.95
2018-02-02T00:56:42.378Z,998.90
2018-02-02T00:57:42.343Z,998.92
2018-02-02T00:58:42.366Z,998.94
2018-02-02T00:59:42.381Z,998.92
2018-02-02T01:00:42.402Z,998.90
2018-02-02T01:01:42.421Z,998.92
2018-02-02T01:02:42.444Z,998.91
2018-02-02T01:03:42.467Z,998.91
2018-02-02T01:04:42.492Z,998.95
2018-02-02T01:05:42.496Z,998.94
2018-02-02T01:06:42.531Z,998.90
2018-02-02T01:07:42.547Z,998.95
2018-02-02T01:08:42.567Z,998.93
2018-02-02T01:09:42.593Z,998.94
2018-02-02T01:10:42.604Z,998.96
2018-02-02T01:11:42.616Z,998.94
2018-02-02T01:12:42.643Z,998.94
2018-02-02T01:13:42.665Z,998.92
2018-02-02T01:14:42.687Z,998.89
2018-02-02T01:15:42.695Z,998.88
2018-02-02T01:16:42.722Z,998.87
2018-02-02T01:17:42.736Z,998.88
2018-02-02T01:18:42.757Z,998.89
2018-02-02T01:19:42.784Z,998.86
2018-02-02T01:20:43.473Z,998.86
2018-02-02T01:21:42.814Z,998.90
2018-02-02T01:22:42.838Z,998.90
2018-02-02T01:23:42.854Z,998.91
2018-02-02T01:24:42.891Z,998.93
2018-02-02T01:25:42.898Z,998.94
2018-02-02T01:26:42.920Z,998.93
2018-02-02T01:27:42.944Z,998.98
2018-02-02T01:28:42.958Z,998.98
2018-02-02T01:29:42.975Z,998.99
2018-02-02T01:30:42.999Z,998.95
2018-02-02T01:31:43.023Z,998.95
2018-02-02T01:32:43.031Z,998.91
2018-02-02T01:33:43.054Z,998.95
2018-02-02T01:34:43.079Z,998.90
2018-02-02T01:35:43.104Z,998.95
2018-02-02T01:36:43.110Z,998.95
2018-02-02T01:37:43.161Z,998.97
2018-02-02T01:38:43.154Z,998.97
2018-02-02T01:39:43.173Z,999.00
2018-02-02T01:40:43.193Z,999.01
2018-02-02T01:41:43.224Z,999.02
2018-02-02T01:42:43.226Z,999.05
2018-02-02T01:43:43.249Z,999.03
2018-02-02T01:44:43.277Z,999.02
2018-02-02T01:45:43.286Z,998.99
2018-02-02T01:46:43.311Z,999.02
2018-02-02T01:47:43.324Z,999.02
2018-02-02T01:48:43.360Z,999.02
2018-02-02T01:49:43.366Z,999.01
2018-02-02T01:50:43.393Z,999.03
2018-02-02T01:51:43.407Z,999.02
2018-02-02T01:52:43.428Z,999.02
2018-02-02T01:53:43.439Z,999.02
2018-02-02T01:54:43.468Z,999.02
2018-02-02T01:55:43.487Z,999.04
2018-02-02T01:56:43.505Z,999.04
2018-02-02T01:57:43.556Z,999.05
2018-02-02T01:58:43.539Z,999.07
2018-02-02T01:59:43.574Z,999.00
2018-02-02T02:00:43.593Z,999.03
2018-02-02T02:01:43.595Z,999.03
2018-02-02T02:02:43.625Z,999.02
2018-02-02T02:03:43.636Z,999.01
2018-02-02T02:04:43.665Z,999.00
2018-02-02T02:05:43.679Z,998.99
2018-02-02T02:06:43.701Z,998.99
2018-02-02T02:07:43.714Z,998.99
2018-02-02T02:08:43.740Z,999.05
2018-02-02T02:09:43.754Z,999.03
2018-02-02T02:10:43.775Z,999.03
2018-02-02T02:11:43.793Z,999.01
2018-02-02T02:12:43.822Z,999.01
2018-02-02T02:13:43.833Z,999.04
2018-02-02T02:14:43.847Z,999.07
2018-02-02T02:15:43.875Z,999.08
2018-02-02T02:16:43.897Z,999.08
2018-02-02T02:17:43.908Z,999.10
2018-02-02T02:18:43.929Z,999.09
2018-02-02T02:19:43.952Z,999.07
2018-02-02T02:20:43.967Z,999.09
2018-02-02T02:21:43.987Z,999.09
2018-02-02T02:22:44.015Z,999.11
2018-02-02T02:23:44.108Z,999.11
2018-02-02T02:24:44.061Z,999.08
2018-02-02T02:25:44.077Z,999.11
2018-02-02T02:26:44.107Z,999.08
2018-02-02T02:27:44.117Z,999.07
2018-02-02T02:28:44.131Z,999.07
2018-02-02T02:29:44.162Z,999.09
2018-02-02T02:30:44.161Z,999.05
2018-02-02T02:31:44.192Z,999.06
2018-02-02T02:32:44.225Z,999.06
2018-02-02T02:33:44.241Z,999.08
2018-02-02T02:34:44.243Z,999.08
2018-02-02T02:35:44.273Z,999.09
2018-02-02T02:36:44.372Z,999.11
2018-02-02T02:37:44.314Z,999.15
2018-02-02T02:38:44.348Z,999.09
2018-02-02T02:39:44.340Z,999.14
2018-02-02T02:40:44.374Z,999.12
2018-02-02T02:41:44.392Z,999.11
2018-02-02T02:42:44.401Z,999.12
2018-02-02T02:43:44.428Z,999.10
2018-02-02T02:44:44.439Z,999.11
2018-02-02T02:45:44.465Z,999.14
2018-02-02T02:46:44.476Z,999.09
2018-02-02T02:47:44.497Z,999.09
2018-02-02T02:48:44.536Z,999.10
2018-02-02T02:49:44.547Z,999.14
2018-02-02T02:50:44.555Z,999.10
2018-02-02T02:51:44.587Z,999.12
2018-02-02T02:52:44.596Z,999.15
2018-02-02T02:53:44.622Z,999.11
2018-02-02T02:54:44.635Z,999.10
2018-02-02T02:55:44.654Z,999.12
2018-02-02T02:56:44.696Z,999.06
2018-02-02T02:57:44.703Z,999.08
2018-02-02T02:58:44.713Z,999.04
2018-02-02T02:59:44.738Z,999.03
2018-02-02T03:00:44.755Z,999.06
2018-02-02T03:01:44.787Z,999.07
2018-02-02T03:02:44.881Z,999.07
2018-02-02T03:03:44.811Z,999.08
2018-02-02T03:04:44.840Z,999.10
2018-02-02T03:05:44.855Z,999.17
2018-02-02T03:06:44.866Z,999.13
2018-02-02T03:07:44.897Z,999.18
2018-02-02T03:08:44.914Z,999.17
2018-02-02T03:09:44.930Z,999.16
2018-02-02T03:10:44.950Z,999.17
2018-02-02T03:11:44.969Z,999.17
2018-02-02T03:12:44.996Z,999.14
2018-02-02T03:13:45.024Z,999.22
2018-02-02T03:14:45.032Z,999.17
2018-02-02T03:15:45.057Z,999.17
2018-02-02T03:16:45.072Z,999.21
2018-02-02T03:17:45.098Z,999.22
2018-02-02T03:18:45.112Z,999.25
2018-02-02T03:19:45.131Z,999.24
2018-02-02T03:20:45.144Z,999.23
2018-02-02T03:21:45.168Z,999.27
2018-02-02T03:22:45.184Z,999.31
2018-02-02T03:23:45.208Z,999.29
2018-02-02T03:24:45.232Z,999.25
2018-02-02T03:25:45.248Z,999.24
2018-02-02T03:26:45.269Z,999.22
2018-02-02T03:27:45.288Z,999.25
2018-02-02T03:28:45.325Z,999.25
2018-02-02T03:29:45.325Z,999.25
2018-02-02T03:30:45.349Z,999.24
2018-02-02T03:31:45.371Z,999.26
2018-02-02T03:32:45.381Z,999.24
2018-02-02T03:33:45.435Z,999.28
2018-02-02T03:34:45.428Z,999.30
2018-02-02T03:35:45.441Z,999.29
2018-02-02T03:36:45.463Z,999.34
2018-02-02T03:37:45.476Z,999.32
2018-02-02T03:38:45.499Z,999.34
2018-02-02T03:39:45.527Z,999.35
2018-02-02T03:40:45.535Z,999.35
2018-02-02T03:41:45.559Z,999.35
2018-02-02T03:42:45.578Z,999.37
2018-02-02T03:43:45.601Z,999.36
2018-02-02T03:44:45.617Z,999.42
2018-02-02T03:45:45.639Z,999.41
2018-02-02T03:46:45.658Z,999.43
2018-02-02T03:47:45.675Z,999.38
2018-02-02T03:48:45.717Z,999.36
2018-02-02T03:49:45.725Z,999.40
2018-02-02T03:50:45.732Z,999.40
2018-02-02T03:51:45.761Z,999.36
2018-02-02T03:52:45.777Z,999.38
2018-02-02T03:53:45.799Z,999.39
2018-02-02T03:54:45.811Z,999.43
2018-02-02T03:55:45.831Z,999.40
2018-02-02T03:56:45.856Z,999.40
2018-02-02T03:57:45.878Z,999.43
2018-02-02T03:58:45.889Z,999.45
2018-02-02T03:59:45.916Z,999.45
2018-02-02T04:00:45.930Z,999.44
2018-02-02T04:01:45.953Z,999.43
2018-02-02T04:02:45.967Z,999.44
2018-02-02T04:03:45.986Z,999.43
2018-02-02T04:04:46.007Z,999.43
2018-02-02T04:05:46.026Z,999.44
2018-02-02T04:06:46.075Z,999.45
2018-02-02T04:07:46.067Z,999.51
2018-02-02T04:08:46.084Z,999.48
2018-02-02T04:09:46.105Z,999.52
2018-02-02T04:10:46.123Z,999.50
2018-02-02T04:11:46.149Z,999.50
2018-02-02T04:12:46.161Z,999.48
2018-02-02T04:13:46.188Z,999.46
2018-02-02T04:14:46.203Z,999.48
2018-02-02T04:15:46.217Z,999.49
2018-02-02T04:16:46.287Z,999.48
2018-02-02T04:17:46.265Z,999.42
2018-02-02T04:18:46.282Z,999.43
2018-02-02T04:19:46.297Z,999.48
2018-02-02T04:20:46.316Z,999.49
2018-02-02T04:21:46.344Z,999.46
2018-02-02T04:22:46.367Z,999.48
2018-02-02T04:23:46.386Z,999.48
2018-02-02T04:24:46.400Z,999.51
2018-02-02T04:25:46.406Z,999.47
2018-02-02T04:26:46.438Z,999.45
2018-02-02T04:27:46.448Z,999.40
2018-02-02T04:28:46.466Z,999.46
2018-02-02T04:29:46.482Z,999.45
2018-02-02T04:30:46.505Z,999.49
2018-02-02T04:31:46.619Z,999.50
2018-02-02T04:32:46.544Z,999.51
2018-02-02T04:33:46.566Z,999.50
2018-02-02T04:34:46.591Z,999.52
2018-02-02T04:35:46.604Z,999.51
2018-02-02T04:36:46.619Z,999.49
2018-02-02T04:37:46.642Z,999.47
2018-02-02T04:38:46.655Z,999.47
2018-02-02T04:39:46.690Z,999.45
2018-02-02T04:40:46.707Z,999.43
2018-02-02T04:41:46.714Z,999.45
2018-02-02T04:42:46.753Z,999.45
2018-02-02T04:43:46.762Z,999.41
2018-02-02T04:44:46.795Z,999.44
2018-02-02T04:45:46.793Z,999.47
2018-02-02T04:46:46.814Z,999.48
2018-02-02T04:47:46.833Z,999.43
2018-02-02T04:48:46.856Z,999.48
2018-02-02T04:49:46.870Z,999.47
2018-02-02T04:50:46.910Z,999.50
2018-02-02T04:51:46.917Z,999.48
2018-02-02T04:52:46.931Z,999.48
2018-02-02T04:53:46.940Z,999.49
2018-02-02T04:54:46.969Z,999.52
2018-02-02T04:55:46.988Z,999.52
2018-02-02T04:56:47.001Z,999.51
2018-02-02T04:57:47.029Z,999.53
2018-02-02T04:58:47.039Z,999.50
2018-02-02T04:59:47.066Z,999.53
2018-02-02T05:00:47.085Z,999.65
2018-02-02T05:01:47.096Z,999.69
2018-02-02T05:02:47.129Z,999.72
2018-02-02T05:03:47.141Z,999.75
2018-02-02T05:04:47.161Z,999.75
2018-02-02T05:05:47.173Z,999.74
2018-02-02T05:06:47.195Z,999.71
2018-02-02T05:07:47.209Z,999.74
2018-02-02T05:08:47.230Z,999.76
2018-02-02T05:09:47.252Z,999.78
2018-02-02T05:10:47.272Z,999.78
2018-02-02T05:11:47.300Z,999.80
2018-02-02T05:12:47.307Z,999.81
2018-02-02T05:13:47.326Z,999.83
2018-02-02T05:14:47.349Z,999.81
2018-02-02T05:15:47.366Z,999.81
2018-02-02T05:16:47.404Z,999.83
2018-02-02T05:17:47.405Z,999.81
2018-02-02T05:18:47.420Z,999.83
2018-02-02T05:19:47.451Z,999.80
2018-02-02T05:20:47.463Z,999.82
2018-02-02T05:21:47.485Z,999.78
2018-02-02T05:22:47.497Z,999.77
2018-02-02T05:23:47.525Z,999.81
2018-02-02T05:24:47.539Z,999.75
2018-02-02T05:25:47.557Z,999.79
2018-02-02T05:26:47.574Z,999.76
2018-02-02T05:27:47.591Z,999.77
2018-02-02T05:28:47.622Z,999.76
2018-02-02T05:29:47.629Z,999.73
2018-02-02T05:30:47.648Z,999.73
2018-02-02T05:31:47.672Z,999.68
2018-02-02T05:32:47.686Z,999.70
2018-02-02T05:33:47.713Z,999.63
2018-02-02T05:34:47.743Z,999.70
2018-02-02T05:35:47.745Z,999.64
2018-02-02T05:36:47.766Z,999.68
2018-02-02T05:37:47.789Z,999.63
2018-02-02T05:38:47.804Z,999.63
2018-02-02T05:39:47.821Z,999.61
2018-02-02T05:40:47.844Z,999.62
2018-02-02T05:41:47.866Z,999.59
2018-02-02T05:42:47.880Z,999.61
2018-02-02T05:43:47.908Z,999.60
2018-02-02T05:44:47.916Z,999.64
2018-02-02T05:45:47.945Z,999.61
2018-02-02T05:46:47.966Z,999.62
2018-02-02T05:47:47.997Z,999.61
2018-02-02T05:48:47.991Z,999.61
2018-02-02T05:49:48.026Z,999.62
2018-02-02T05:50:48.036Z,999.60
2018-02-02T05:51:48.052Z,999.62
2018-02-02T05:52:48.069Z,999.64
2018-02-02T05:53:48.094Z,999.63
2018-02-02T05:54:48.117Z,999.67
2018-02-02T05:55:48.128Z,999.69
2018-02-02T05:56:48.146Z,999.71
2018-02-02T05:57:48.169Z,999.68
2018-02-02T05:58:48.242Z,999.69
2018-02-02T05:59:48.210Z,999.67
2018-02-02T06:00:48.244Z,999.69
2018-02-02T06:01:48.246Z,999.70
2018-02-02T06:02:48.268Z,999.69
2018-02-02T06:03:48.285Z,999.70
2018-02-02T06:04:48.299Z,999.75
2018-02-02T06:05:48.323Z,999.75
2018-02-02T06:06:48.358Z,999.74
2018-02-02T06:07:48.370Z,999.76
2018-02-02T06:08:48.382Z,999.77
2018-02-02T06:09:48.392Z,999.80
2018-02-02T06:10:48.419Z,999.79
2018-02-02T06:11:48.435Z,999.78
2018-02-02T06:12:48.448Z,999.78
2018-02-02T06:13:48.565Z,999.78
2018-02-02T06:14:48.496Z,999.80
2018-02-02T06:15:48.555Z,999.79
2018-02-02T06:16:48.532Z,999.79
2018-02-02T06:17:48.546Z,999.80
2018-02-02T06:18:48.576Z,999.80
2018-02-02T06:19:48.584Z,999.83
2018-02-02T06:20:48.608Z,999.80
2018-02-02T06:21:48.625Z,999.84
2018-02-02T06:22:48.642Z,999.87
2018-02-02T06:23:48.668Z,999.86
2018-02-02T06:24:48.685Z,999.83
2018-02-02T06:25:48.726Z,999.82
2018-02-02T06:26:49.475Z,999.84
2018-02-02T06:27:48.738Z,999.87
2018-02-02T06:28:48.767Z,999.88
2018-02-02T06:29:48.780Z,999.93
2018-02-02T06:30:48.797Z,999.93
2018-02-02T06:31:48.832Z,999.92
2018-02-02T06:32:48.849Z,999.94
2018-02-02T06:33:48.857Z,999.97
2018-02-02T06:34:48.873Z,999.92
2018-02-02T06:35:48.897Z,999.96
2018-02-02T06:36:48.913Z,999.94
2018-02-02T06:37:48.928Z,999.95
2018-02-02T06:38:48.952Z,999.90
2018-02-02T06:39:48.987Z,999.91
2018-02-02T06:40:48.995Z,999.89
2018-02-02T06:41:49.035Z,999.92
2018-02-02T06:42:49.075Z,999.87
2018-02-02T06:43:49.046Z,999.89
2018-02-02T06:44:49.070Z,999.88
2018-02-02T06:45:49.089Z,999.86
2018-02-02T06:46:49.101Z,999.89
2018-02-02T06:47:49.119Z,999.88
2018-02-02T06:48:49.151Z,999.87
2018-02-02T06:49:49.161Z,999.88
2018-02-02T06:50:49.184Z,999.88
2018-02-02T06:51:49.204Z,999.86
2018-02-02T06:52:49.217Z,999.88
2018-02-02T06:53:49.256Z,999.94
2018-02-02T06:54:49.260Z,999.94
2018-02-02T06:55:49.282Z,999.93
2018-02-02T06:56:49.299Z,999.94
2018-02-02T06:57:49.324Z,999.88
2018-02-02T06:58:49.334Z,999.89
2018-02-02T06:59:49.357Z,999.95
2018-02-02T07:00:49.375Z,999.96
2018-02-02T07:01:49.389Z,999.98
2018-02-02T07:02:49.417Z,1000.02
2018-02-02T07:03:49.427Z,1000.02
2018-02-02T07:04:49.450Z,1000.03
2018-02-02T07:05:49.476Z,1000.04
2018-02-02T07:06:49.488Z,1000.01
2018-02-02T07:07:49.510Z,1000.01
2018-02-02T07:08:49.530Z,1000.02
2018-02-02T07:09:49.550Z,1000.05
2018-02-02T07:10:49.568Z,1000.09
2018-02-02T07:11:49.587Z,1000.09
2018-02-02T07:12:49.605Z,1000.13
2018-02-02T07:13:49.634Z,1000.10
2018-02-02T07:14:49.643Z,1000.14
2018-02-02T07:15:49.664Z,1000.13
2018-02-02T07:16:49.686Z,1000.11
2018-02-02T07:17:49.700Z,1000.13
2018-02-02T07:18:49.737Z,1000.13
2018-02-02T07:19:49.747Z,1000.16
2018-02-02T07:20:49.759Z,1000.19
2018-02-02T07:21:49.777Z,1000.17
2018-02-02T07:22:49.816Z,1000.14
2018-02-02T07:23:49.820Z,1000.17
2018-02-02T07:24:49.842Z,1000.16
2018-02-02T07:25:49.852Z,1000.17
2018-02-02T07:26:49.892Z,1000.16
2018-02-02T07:27:49.894Z,1000.13
2018-02-02T07:28:49.911Z,1000.14
2018-02-02T07:29:49.929Z,1000.16
2018-02-02T07:30:49.966Z,1000.13
2018-02-02T07:31:49.972Z,1000.13
2018-02-02T07:32:49.994Z,1000.15
2018-02-02T07:33:50.012Z,1000.14
2018-02-02T07:34:50.025Z,1000.16
2018-02-02T07:35:50.044Z,1000.15
2018-02-02T07:36:50.076Z,1000.16
2018-02-02T07:37:50.086Z,1000.17
2018-02-02T07:38:50.118Z,1000.16
2018-02-02T07:39:50.126Z,1000.12
2018-02-02T07:40:50.146Z,1000.13
2018-02-02T07:41:50.167Z,1000.12
2018-02-02T07:42:50.976Z,1000.09
2018-02-02T07:43:50.208Z,1000.10
2018-02-02T07:44:50.245Z,1000.11
2018-02-02T07:45:50.242Z,1000.14
2018-02-02T07:46:50.257Z,1000.16
2018-02-02T07:47:50.284Z,1000.12
2018-02-02T07:48:50.306Z,1000.09
2018-02-02T07:49:50.321Z,1000.10
2018-02-02T07:50:50.337Z,1000.18
2018-02-02T07:51:50.363Z,1000.18
2018-02-02T07:52:50.379Z,1000.17
2018-02-02T07:53:50.417Z,1000.17
2018-02-02T07:54:50.429Z,1000.20
2018-02-02T07:55:50.452Z,1000.13
2018-02-02T07:56:50.453Z,1000.15
2018-02-02T07:57:50.508Z,1000.10
2018-02-02T07:58:50.488Z,1000.15
2018-02-02T07:59:50.529Z,1000.13
2018-02-02T08:00:50.535Z,1000.20
2018-02-02T08:01:50.553Z,1000.17
2018-02-02T08:02:50.567Z,1000.20
2018-02-02T08:03:50.595Z,1000.17
2018-02-02T08:04:50.618Z,1000.18
2018-02-02T08:05:50.627Z,1000.20
2018-02-02T08:06:50.646Z,1000.20
2018-02-02T08:07:50.673Z,1000.22
2018-02-02T08:08:50.716Z,1000.24
2018-02-02T08:09:50.733Z,1000.22
2018-02-02T08:10:50.736Z,1000.19
2018-02-02T08:11:50.749Z,1000.22
2018-02-02T08:12:50.768Z,1000.18
2018-02-02T08:13:50.780Z,1000.20
2018-02-02T08:14:50.809Z,1000.21
2018-02-02T08:15:50.823Z,1000.21
2018-02-02T08:16:50.841Z,1000.18
2018-02-02T08:17:50.860Z,1000.18
2018-02-02T08:18:50.889Z,1000.21
2018-02-02T08:19:50.905Z,1000.20
2018-02-02T08:20:50.955Z,1000.17
2018-02-02T08:21:51.057Z,1000.21
2018-02-02T08:22:50.961Z,1000.19
2018-02-02T08:23:50.980Z,1000.22
2018-02-02T08:24:50.998Z,1000.22
2018-02-02T08:25:51.017Z,1000.22
2018-02-02T08:26:51.037Z,1000.27
2018-02-02T08:27:51.056Z,1000.25
2018-02-02T08:28:51.085Z,1000.25
2018-02-02T08:29:51.094Z,1000.28
2018-02-02T08:30:51.118Z,1000.27
2018-02-02T08:31:51.135Z,1000.27
2018-02-02T08:32:51.157Z,1000.29
2018-02-02T08:33:51.187Z,1000.25
2018-02-02T08:34:51.201Z,1000.27
2018-02-02T08:35:51.233Z,1000.25
2018-02-02T08:36:51.232Z,1000.25
2018-02-02T08:37:51.261Z,1000.25
2018-02-02T08:38:51.292Z,1000.24
2018-02-02T08:39:51.296Z,1000.24
2018-02-02T08:40:51.326Z,1000.22
2018-02-02T08:41:51.324Z,1000.19
2018-02-02T08:42:51.349Z,1000.21
2018-02-02T08:43:51.369Z,1000.23
2018-02-02T08:44:51.394Z,1000.22
2018-02-02T08:45:51.415Z,1000.13
2018-02-02T08:46:51.423Z,1000.26
2018-02-02T08:47:51.442Z,1000.23
2018-02-02T08:48:51.477Z,1000.26
2018-02-02T08:49:51.486Z,1000.21
2018-02-02T08:50:51.506Z,1000.22
2018-02-02T08:51:51.528Z,1000.22
2018-02-02T08:52:51.541Z,1000.24
2018-02-02T08:53:51.561Z,1000.19
2018-02-02T08:54:51.582Z,1000.25
2018-02-02T08:55:51.601Z,1000.27
2018-02-02T08:56:51.630Z,1000.25
2018-02-02T08:57:51.642Z,1000.20
2018-02-02T08:58:51.659Z,1000.24
2018-02-02T08:59:51.683Z,1000.21
2018-02-02T09:00:51.708Z,1000.24
2018-02-02T09:01:51.720Z,1000.24
2018-02-02T09:02:51.773Z,1000.23
2018-02-02T09:03:51.759Z,1000.23
2018-02-02T09:04:51.798Z,1000.27
2018-02-02T09:05:51.801Z,1000.26
2018-02-02T09:06:51.827Z,1000.28
2018-02-02T09:07:51.855Z,1000.32
2018-02-02T09:08:51.880Z,1000.28
2018-02-02T09:09:51.884Z,1000.32
2018-02-02T09:10:51.910Z,1000.35
2018-02-02T09:11:51.923Z,1000.35
2018-02-02T09:12:51.950Z,1000.41
2018-02-02T09:13:51.970Z,1000.41
2018-02-02T09:14:51.981Z,1000.47
2018-02-02T09:15:52.011Z,1000.46
2018-02-02T09:16:52.034Z,1000.46
2018-02-02T09:17:52.044Z,1000.46
2018-02-02T09:18:52.067Z,1000.45
2018-02-02T09:19:52.081Z,1000.42
2018-02-02T09:20:52.105Z,1000.42
2018-02-02T09:21:52.139Z,1000.46
2018-02-02T09:22:52.142Z,1000.46
2018-02-02T09:23:52.168Z,1000.38
2018-02-02T09:24:52.298Z,1000.40
2018-02-02T09:25:52.399Z,1000.39
2018-02-02T09:26:52.318Z,1000.44
2018-02-02T09:27:52.378Z,1000.37
2018-02-02T09:28:52.432Z,1000.44
2018-02-02T09:29:52.500Z,1000.39
2018-02-02T09:30:52.346Z,1000.39
2018-02-02T09:31:52.486Z,1000.42
2018-02-02T09:32:52.455Z,1000.42
2018-02-02T09:33:52.531Z,1000.43
2018-02-02T09:34:52.573Z,1000.44
2018-02-02T09:35:52.576Z,1000.44
2018-02-02T09:36:52.754Z,1000.44
2018-02-02T09:37:52.636Z,1000.40
2018-02-02T09:38:52.674Z,1000.41
2018-02-02T09:39:52.579Z,1000.40
2018-02-02T09:40:52.722Z,1000.39
2018-02-02T09:41:52.751Z,1000.37
2018-02-02T09:42:52.640Z,1000.43
2018-02-02T09:43:52.745Z,1000.42
2018-02-02T09:44:52.706Z,1000.43
2018-02-02T09:45:52.820Z,1000.46
2018-02-02T09:46:52.862Z,1000.47
2018-02-02T09:47:52.879Z,1000.49
2018-02-02T09:48:52.783Z,1000.49
2018-02-02T09:49:52.716Z,1000.42
2018-02-02T09:50:52.733Z,1000.48
2018-02-02T09:51:52.746Z,1000.48
2018-02-02T09:52:52.764Z,1000.45
2018-02-02T09:53:52.805Z,1000.46
2018-02-02T09:54:52.811Z,1000.50
2018-02-02T09:55:52.831Z,1000.50
2018-02-02T09:56:52.853Z,1000.48
2018-02-02T09:57:52.907Z,1000.45
2018-02-02T09:58:52.896Z,1000.45
2018-02-02T09:59:52.918Z,1000.47
2018-02-02T10:00:52.951Z,1000.42
2018-02-02T10:01:52.985Z,1000.39
2018-02-02T10:02:52.995Z,1000.41
2018-02-02T10:03:53.004Z,1000.33
2018-02-02T10:04:53.029Z,1000.34
2018-02-02T10:05:53.045Z,1000.37
2018-02-02T10:06:53.073Z,1000.39
2018-02-02T10:07:53.094Z,1000.36
2018-02-02T10:08:53.111Z,1000.34
2018-02-02T10:09:53.124Z,1000.35
2018-02-02T10:10:53.151Z,1000.34
2018-02-02T10:11:53.170Z,1000.34
2018-02-02T10:12:53.981Z,1000.30
2018-02-02T10:13:53.272Z,1000.34
2018-02-02T10:14:53.251Z,1000.29
2018-02-02T10:15:53.264Z,1000.38
2018-02-02T10:16:53.285Z,1000.32
2018-02-02T10:17:53.292Z,1000.32
2018-02-02T10:18:53.324Z,1000.34
2018-02-02T10:19:53.339Z,1000.29
2018-02-02T10:20:53.360Z,1000.28
2018-02-02T10:21:53.382Z,1000.30
2018-02-02T10:22:53.456Z,1000.29
2018-02-02T10:23:53.517Z,1000.28
2018-02-02T10:24:53.449Z,1000.32
2018-02-02T10:25:53.463Z,1000.27
2018-02-02T10:26:53.483Z,1000.26
2018-02-02T10:27:53.503Z,1000.30
2018-02-02T10:28:53.522Z,1000.26
2018-02-02T10:29:53.543Z,1000.24
2018-02-02T10:30:53.589Z,1000.25
2018-02-02T10:31:53.594Z,1000.22
2018-02-02T10:32:53.613Z,1000.19
2018-02-02T10:33:53.631Z,1000.19
2018-02-02T10:34:53.650Z,1000.22
2018-02-02T10:35:53.671Z,1000.18
2018-02-02T10:36:53.709Z,1000.17
2018-02-02T10:37:53.719Z,1000.20
2018-02-02T10:38:53.741Z,1000.19
2018-02-02T10:39:53.760Z,1000.22
2018-02-02T10:40:53.792Z,1000.29
2018-02-02T10:41:53.792Z,1000.22
2018-02-02T10:42:53.817Z,1000.26
2018-02-02T10:43:53.845Z,1000.27
2018-02-02T10:44:53.880Z,1000.27
2018-02-02T10:45:53.883Z,1000.21
2018-02-02T10:46:53.902Z,1000.23
2018-02-02T10:47:53.928Z,1000.23
2018-02-02T10:48:53.950Z,1000.29
2018-02-02T10:49:53.971Z,1000.28
2018-02-02T10:50:54.001Z,1000.17
2018-02-02T10:51:54.016Z,1000.12
2018-02-02T10:52:54.042Z,1000.20
2018-02-02T10:53:54.057Z,1000.17
2018-02-02T10:54:54.094Z,1000.19
2018-02-02T10:55:54.107Z,1000.14
2018-02-02T10:56:54.132Z,1000.13
2018-02-02T10:57:54.157Z,1000.15
2018-02-02T10:58:54.181Z,1000.16
2018-02-02T10:59:54.200Z,1000.16
2018-02-02T11:00:54.224Z,1000.18
2018-02-02T11:01:54.252Z,1000.15
2018-02-02T11:02:54.269Z,1000.12
2018-02-02T11:03:54.293Z,1000.12
2018-02-02T11:04:54.327Z,1000.15
2018-02-02T11:05:54.339Z,1000.17
2018-02-02T11:06:54.377Z,1000.13
2018-02-02T11:07:54.385Z,1000.15
2018-02-02T11:08:54.414Z,1000.08
2018-02-02T11:09:54.459Z,1000.22
2018-02-02T11:10:54.451Z,1000.06
2018-02-02T11:11:54.476Z,1000.05
2018-02-02T11:12:54.520Z,1000.09
2018-02-02T11:13:54.530Z,1000.10
2018-02-02T11:14:54.543Z,1000.13
2018-02-02T11:15:54.592Z,1000.11
2018-02-02T11:16:54.588Z,1000.11
2018-02-02T11:17:54.616Z,1000.09
2018-02-02T11:18:54.644Z,1000.09
2018-02-02T11:19:54.675Z,1000.10
2018-02-02T11:20:54.677Z,1000.08
2018-02-02T11:21:54.701Z,999.99
2018-02-02T11:22:54.731Z,999.98
2018-02-02T11:23:54.747Z,1000.03
2018-02-02T11:24:54.782Z,999.96
2018-02-02T11:25:54.790Z,999.96
2018-02-02T11:26:54.823Z,999.95
2018-02-02T11:27:54.838Z,999.88
2018-02-02T11:28:54.864Z,999.89
2018-02-02T11:29:54.915Z,999.92
2018-02-02T11:30:54.914Z,999.87
2018-02-02T11:31:54.931Z,999.94
2018-02-02T11:32:54.955Z,999.92
2018-02-02T11:33:54.977Z,999.92
2018-02-02T11:34:55.010Z,999.87
2018-02-02T11:35:55.057Z,999.91
2018-02-02T11:36:55.045Z,999.78
2018-02-02T11:37:55.162Z,999.94
2018-02-02T11:38:55.126Z,999.87
2018-02-02T11:39:55.116Z,999.91
2018-02-02T11:40:55.137Z,999.88
2018-02-02T11:41:55.160Z,999.89
2018-02-02T11:42:55.186Z,999.90
2018-02-02T11:43:55.208Z,999.92
2018-02-02T11:44:55.237Z,999.86
2018-02-02T11:45:55.253Z,999.84
2018-02-02T11:46:55.271Z,999.86
2018-02-02T11:47:55.302Z,999.85
2018-02-02T11:48:55.327Z,999.86
2018-02-02T11:49:55.360Z,999.82
2018-02-02T11:50:55.368Z,999.82
2018-02-02T11:51:55.382Z,999.80
2018-02-02T11:52:55.416Z,999.79
2018-02-02T11:53:55.430Z,999.86
2018-02-02T11:54:55.451Z,999.89
2018-02-02T11:55:55.477Z,999.83
2018-02-02T11:56:55.499Z,999.90
2018-02-02T11:57:55.522Z,999.89
2018-02-02T11:58:55.551Z,999.87
2018-02-02T11:59:55.576Z,999.87
2018-02-02T12:00:55.589Z,999.80
2018-02-02T12:01:55.616Z,999.83
2018-02-02T12:02:55.633Z,999.82
2018-02-02T12:03:55.650Z,999.89
2018-02-02T12:04:55.674Z,999.81
2018-02-02T12:05:55.699Z,999.80
2018-02-02T12:06:55.728Z,999.83
2018-02-02T12:07:55.751Z,999.82
2018-02-02T12:08:55.770Z,999.79
2018-02-02T12:09:55.787Z,999.78
2018-02-02T12:10:55.814Z,999.76
2018-02-02T12:11:55.840Z,999.77
2018-02-02T12:12:55.866Z,999.76
2018-02-02T12:13:55.877Z,999.77
2018-02-02T12:14:55.918Z,999.77
2018-02-02T12:15:55.919Z,999.78
2018-02-02T12:16:55.955Z,999.71
2018-02-02T12:17:55.973Z,999.73
2018-02-02T12:18:56.001Z,999.73
2018-02-02T12:19:56.011Z,999.74
2018-02-02T12:20:56.033Z,999.69